Time;durP1;ratioP1;P1;durP2;ratioP2;P2;SDS_P1;SDS_P2;PMS_P1;PMS_P2;Temp;Humidity;BMP_temperature;BMP_pressure;BME280_temperature;BME280_humidity;BME280_pressure;Samples;Min_cycle;Max_cycle;Signal;HPM_P1;HPM_P2
2022/05/02 00:00:51;;;;;;;12.50;6.22;;;;;;;15.30;46.37;100487.97;5352856;32;35738;-90
2022/05/02 00:03:54;;;;;;;13.48;6.10;;;;;;;14.99;47.87;100484.41;5374522;32;33456;-95
2022/05/02 00:06:57;;;;;;;10.13;6.10;;;;;;;15.57;46.60;100475.78;5375589;32;34326;-93
2022/05/02 00:10:01;;;;;;;11.85;5.65;;;;;;;15.50;46.77;100473.59;5365829;32;35103;-90
2022/05/02 00:13:06;;;;;;;12.93;5.97;;;;;;;14.86;48.59;100476.28;5401614;32;34170;-90
2022/05/02 00:16:09;;;;;;;13.43;5.77;;;;;;;15.83;45.69;100455.72;5360470;32;34780;-89
2022/05/02 00:19:12;;;;;;;9.88;5.32;;;;;;;14.55;48.98;100473.59;5378007;32;44462;-91
2022/05/02 00:22:15;;;;;;;13.13;5.85;;;;;;;15.01;47.88;100466.66;5370555;32;34045;-92
2022/05/02 00:25:17;;;;;;;10.35;5.50;;;;;;;14.74;48.62;100476.09;5386937;32;34293;-89
2022/05/02 00:28:20;;;;;;;11.65;5.75;;;;;;;14.58;49.07;100470.81;5374231;32;35056;-90
2022/05/02 00:31:23;;;;;;;;;;;;;;;14.77;48.62;100473.31;5363827;32;35001;-89
2022/05/02 00:34:26;;;;;;;11.57;5.72;;;;;;;15.67;46.27;100462.91;5384874;32;37310;-93
2022/05/02 00:37:29;;;;;;;10.82;5.03;;;;;;;15.06;47.19;100474.31;5380910;32;35299;-93
2022/05/02 00:40:33;;;;;;;10.00;4.90;;;;;;;14.99;47.49;100471.16;5367800;32;35355;-90
2022/05/02 00:43:35;;;;;;;9.77;5.20;;;;;;;15.45;46.34;100471.19;5379653;32;34418;-89
2022/05/02 00:46:38;;;;;;;9.07;5.40;;;;;;;15.39;46.37;100476.84;5384755;32;35241;-94
2022/05/02 00:49:41;;;;;;;;;;;;;;;15.03;47.26;100469.22;5364338;32;43279;-90
2022/05/02 00:52:45;;;;;;;10.35;5.22;;;;;;;15.28;46.74;100474.81;5381740;32;34912;-92
2022/05/02 00:55:47;;;;;;;11.43;5.25;;;;;;;15.04;46.95;100474.41;5380046;32;34783;-93
2022/05/02 00:58:50;;;;;;;9.48;5.45;;;;;;;14.79;47.91;100479.38;5371717;32;34180;-90
2022/05/02 01:01:54;;;;;;;10.02;5.60;;;;;;;14.66;48.83;100479.19;5374648;32;35299;-93
2022/05/02 01:04:57;;;;;;;10.20;5.50;;;;;;;14.74;48.73;100473.47;5377535;32;36278;-88
2022/05/02 01:08:00;;;;;;;9.65;5.07;;;;;;;15.57;46.71;100475.78;5368079;32;36304;-93
2022/05/02 01:11:03;;;;;;;10.40;5.35;;;;;;;16.27;44.78;100478.69;5387807;32;34047;-90
2022/05/02 01:14:08;;;;;;;9.48;4.85;;;;;;;14.84;48.21;100483.47;5352557;32;33671;-90
2022/05/02 01:17:11;;;;;;;8.93;5.47;;;;;;;15.46;46.89;100478.22;5380087;32;44421;-93
2022/05/02 01:20:14;;;;;;;9.95;5.53;;;;;;;14.71;48.66;100473.66;5366092;32;34953;-89
2022/05/02 01:23:17;;;;;;;12.77;5.40;;;;;;;14.32;50.16;100466.91;5387268;32;35156;-89
2022/05/02 01:26:20;;;;;;;10.40;5.70;;;;;;;14.61;49.46;100475.91;5363572;32;33783;-92
2022/05/02 01:29:23;;;;;;;9.15;5.57;;;;;;;15.31;47.89;100471.13;5370580;32;35209;-88
2022/05/02 01:32:26;;;;;;;9.70;5.72;;;;;;;15.23;47.66;100473.38;5389656;32;36314;-93
2022/05/02 01:35:29;;;;;;;11.18;5.50;;;;;;;15.63;46.56;100469.31;5378954;32;36151;-94
2022/05/02 01:38:33;;;;;;;9.93;5.35;;;;;;;14.37;50.39;100475.44;5373810;32;34123;-94
2022/05/02 01:41:35;;;;;;;12.87;5.50;;;;;;;15.20;48.24;100473.53;5357829;32;33390;-90
2022/05/02 01:44:39;;;;;;;10.93;5.70;;;;;;;15.36;47.55;100467.28;5371680;32;34161;-93
2022/05/02 01:47:42;;;;;;;9.70;5.53;;;;;;;15.05;48.45;100467.31;5383372;32;43165;-93
2022/05/02 01:50:45;;;;;;;10.57;5.37;;;;;;;15.43;47.34;100466.00;5378594;32;35167;-90
2022/05/02 01:53:47;;;;;;;10.18;5.68;;;;;;;15.43;46.99;100473.09;5387743;32;35350;-89
2022/05/02 01:56:50;;;;;;;11.20;5.87;;;;;;;15.13;47.75;100465.09;5380349;32;33742;-90
2022/05/02 01:59:52;;;;;;;11.60;5.85;;;;;;;14.90;48.58;100471.69;5404212;32;34298;-91
2022/05/02 02:02:55;;;;;;;;;;;;;;;15.91;45.57;100487.09;5356983;32;34278;-92
2022/05/02 02:05:59;;;;;;;9.57;5.67;;;;;;;15.93;45.31;100488.69;5387426;32;35725;-92
2022/05/02 02:09:01;;;;;;;10.67;6.23;;;;;;;16.40;44.21;100486.75;5388018;32;35810;-92
2022/05/02 02:12:04;;;;;;;11.37;6.13;;;;;;;15.23;46.63;100481.31;5368230;32;34226;-90
2022/05/02 02:15:08;;;;;;;11.80;5.93;;;;;;;15.08;47.46;100488.34;5355054;32;33368;-90
2022/05/02 02:18:12;;;;;;;10.80;6.10;;;;;;;15.39;46.32;100482.13;5365508;32;44559;-90
2022/05/02 02:21:14;;;;;;;13.07;5.53;;;;;;;15.46;46.13;100475.56;5391017;32;34030;-90
2022/05/02 02:24:17;;;;;;;11.55;6.05;;;;;;;14.57;48.68;100483.19;5387972;32;33275;-92
2022/05/02 02:27:20;;;;;;;9.68;5.60;;;;;;;15.23;47.09;100483.97;5377506;32;34883;-92
2022/05/02 02:30:22;;;;;;;11.48;6.15;;;;;;;16.40;43.49;100479.66;5391091;32;33962;-89
2022/05/02 02:33:25;;;;;;;9.75;5.95;;;;;;;16.45;43.36;100477.56;5364970;32;35298;-93
2022/05/02 02:36:28;;;;;;;9.68;5.82;;;;;;;15.75;44.43;100475.69;5366815;32;35011;-89
2022/05/02 02:39:31;;;;;;;9.60;5.70;;;;;;;15.34;46.11;100481.56;5384150;32;35982;-89
2022/05/02 02:42:33;;;;;;;10.40;6.18;;;;;;;16.41;43.89;100473.38;5391302;32;34322;-89
2022/05/02 02:45:37;;;;;;;11.15;6.87;;;;;;;16.06;44.56;100472.06;5383837;32;36345;-95
2022/05/02 02:48:40;;;;;;;9.63;6.03;;;;;;;15.48;45.81;100476.31;5363495;32;37742;-93
2022/05/02 02:51:43;;;;;;;10.48;5.78;;;;;;;15.48;46.20;100481.63;5373897;32;37278;-90
2022/05/02 02:54:45;;;;;;;10.98;5.72;;;;;;;15.17;47.21;100475.44;5360318;32;35339;-93
2022/05/02 02:57:50;;;;;;;11.23;5.87;;;;;;;15.98;45.74;100472.53;5375446;32;36336;-94
2022/05/02 03:00:52;;;;;;;10.30;5.65;;;;;;;15.99;45.57;100474.22;5386455;32;33988;-94
2022/05/02 03:03:55;;;;;;;17.83;6.40;;;;;;;16.73;44.29;100470.56;5377627;32;34217;-93
2022/05/02 03:06:58;;;;;;;15.73;6.57;;;;;;;16.19;45.43;100471.22;5367267;32;34083;-89
2022/05/02 03:10:01;;;;;;;11.27;6.18;;;;;;;14.67;50.17;100478.25;5383255;32;36683;-93
2022/05/02 03:13:05;;;;;;;10.05;6.12;;;;;;;15.57;48.47;100467.84;5375106;32;34184;-93
2022/05/02 03:16:10;;;;;;;;;;;;;;;15.55;47.94;100469.72;5350597;32;34804;-90
2022/05/02 03:19:14;;;;;;;12.80;6.13;;;;;;;15.72;47.94;100467.94;5381982;32;43580;-91
2022/05/02 03:22:17;;;;;;;14.67;6.67;;;;;;;15.62;48.52;100471.09;5356103;32;33997;-90
2022/05/02 03:25:20;;;;;;;;;;;;;;;15.26;49.45;100471.37;5395285;32;34729;-93
2022/05/02 03:28:22;;;;;;;10.88;6.43;;;;;;;15.94;47.62;100469.19;5384823;32;34935;-93
2022/05/02 03:31:26;;;;;;;21.62;9.00;;;;;;;16.63;46.50;100472.94;5373055;32;34287;-89
2022/05/02 03:34:29;;;;;;;12.80;6.60;;;;;;;15.90;47.71;100466.81;5375631;32;34717;-93
2022/05/02 03:37:31;;;;;;;14.55;6.95;;;;;;;15.93;48.06;100464.84;5364688;32;34562;-91
2022/05/02 03:40:34;;;;;;;21.10;8.40;;;;;;;15.53;49.29;100465.47;5383400;32;34628;-93
2022/05/02 03:43:38;;;;;;;14.77;7.23;;;;;;;15.35;49.96;100459.44;5381585;32;33546;-90
2022/05/02 03:46:41;;;;;;;17.05;7.10;;;;;;;15.11;51.17;100472.28;5372728;32;43536;-89
2022/05/02 03:49:43;;;;;;;15.25;7.50;;;;;;;16.12;48.73;100461.94;5390422;32;34849;-93
2022/05/02 03:52:46;;;;;;;28.20;7.37;;;;;;;16.27;47.88;100461.94;5381858;32;35671;-89
2022/05/02 03:55:49;;;;;;;13.00;6.22;;;;;;;15.66;49.26;100467.34;5394237;32;34669;-93
2022/05/02 03:58:53;;;;;;;11.43;5.78;;;;;;;15.88;48.49;100458.09;5357225;32;34509;-94
2022/05/02 04:01:56;;;;;;;13.10;7.57;;;;;;;16.01;46.99;100466.19;5371071;32;35761;-94
2022/05/02 04:04:58;;;;;;;13.35;6.55;;;;;;;15.79;47.80;100469.28;5354832;32;35441;-89
2022/05/02 04:08:01;;;;;;;12.73;6.70;;;;;;;15.06;51.03;100467.22;5383332;32;34473;-90
2022/05/02 04:11:04;;;;;;;9.40;6.00;;;;;;;15.24;49.89;100461.84;5384612;32;36534;-89
2022/05/02 04:14:08;;;;;;;15.13;6.90;;;;;;;15.93;47.56;100461.34;5354421;32;35135;-90
2022/05/02 04:17:10;;;;;;;13.70;6.93;;;;;;;15.62;48.24;100457.84;5361347;32;45440;-93
2022/05/02 04:20:13;;;;;;;13.50;6.37;;;;;;;15.24;49.23;100468.00;5364337;32;34680;-90
2022/05/02 04:23:15;;;;;;;12.80;6.72;;;;;;;15.67;48.44;100466.41;5376765;32;34792;-90
2022/05/02 04:26:18;;;;;;;12.32;7.30;;;;;;;15.89;47.59;100467.75;5367589;32;34307;-94
2022/05/02 04:29:21;;;;;;;16.00;6.85;;;;;;;15.80;47.52;100466.53;5371760;32;36351;-92
2022/05/02 04:32:23;;;;;;;12.40;7.60;;;;;;;15.54;48.23;100478.63;5392249;32;34996;-89
2022/05/02 04:35:26;;;;;;;11.97;7.57;;;;;;;15.52;48.36;100472.56;5387889;32;34788;-94
2022/05/02 04:38:30;;;;;;;12.63;7.68;;;;;;;15.17;49.10;100483.38;5367645;32;33713;-91
2022/05/02 04:41:32;;;;;;;14.38;7.20;;;;;;;15.29;48.57;100471.22;5383665;32;35438;-90
2022/05/02 04:44:35;;;;;;;13.48;7.10;;;;;;;15.41;48.43;100474.97;5400032;32;34651;-88
2022/05/02 04:47:37;;;;;;;13.38;8.10;;;;;;;15.55;48.54;100488.28;5371037;32;37687;-89
2022/05/02 04:50:40;;;;;;;13.02;7.65;;;;;;;15.53;48.75;100481.37;5369408;32;46829;-88
2022/05/02 04:53:43;;;;;;;15.07;8.55;;;;;;;15.89;47.56;100491.63;5380669;32;34467;-93
2022/05/02 04:56:46;;;;;;;14.00;7.43;;;;;;;15.31;49.00;100492.31;5380191;32;34470;-90
2022/05/02 04:59:48;;;;;;;15.15;6.93;;;;;;;15.61;48.83;100501.16;5376299;32;34463;-89
2022/05/02 05:02:51;;;;;;;14.68;8.15;;;;;;;16.48;46.41;100497.75;5378630;32;34924;-89
2022/05/02 05:06:00;;;;;;;16.70;8.40;;;;;;;16.39;46.38;100498.31;5377494;32;35852;-95
2022/05/02 05:09:03;;;;;;;;;;;;;;;16.19;47.19;100495.09;5389042;32;33890;-90
2022/05/02 05:12:45;;;;;;;15.35;7.82;;;;;;;16.85;45.65;100485.72;5378320;32;35651;-92
2022/05/02 05:19:55;;;;;;;18.08;7.87;;;;;;;17.18;44.51;100490.66;5380778;32;34409;-94
2022/05/02 05:23:06;;;;;;;17.50;7.90;;;;;;;16.58;45.64;100490.06;5380501;32;34320;-89
2022/05/02 05:26:26;;;;;;;15.80;7.63;;;;;;;15.95;46.55;100502.69;5405842;32;34381;-92
2022/05/02 05:30:07;;;;;;;14.47;7.47;;;;;;;15.57;47.49;100510.22;5379787;32;34848;-93
2022/05/02 05:33:39;;;;;;;16.20;8.00;;;;;;;17.04;43.59;100493.34;5363200;32;36489;-90
2022/05/02 05:36:48;;;;;;;13.80;8.43;;;;;;;16.01;46.37;100495.34;5399548;32;43729;-92
2022/05/02 05:40:03;;;;;;;13.93;7.40;;;;;;;16.73;45.38;100497.94;5369018;32;34852;-90
2022/05/02 05:43:31;;;;;;;19.17;7.40;;;;;;;16.86;44.70;100497.19;5389628;32;34100;-96
2022/05/02 05:46:51;;;;;;;16.60;7.37;;;;;;;16.66;44.50;100487.78;5375343;32;34711;-89
2022/05/02 05:50:27;;;;;;;15.07;7.68;;;;;;;16.39;44.58;100485.06;5376917;32;34487;-94
2022/05/02 05:53:42;;;;;;;18.13;7.33;;;;;;;16.39;44.67;100490.38;5390875;32;35694;-92
2022/05/02 05:57:07;;;;;;;15.57;7.20;;;;;;;16.37;44.82;100490.47;5392307;32;44420;-90
2022/05/02 06:00:13;;;;;;;12.73;6.80;;;;;;;16.52;43.43;100486.00;5397938;32;44379;-90
2022/05/02 06:03:17;;;;;;;17.43;7.07;;;;;;;17.08;42.38;100480.75;5393103;32;33654;-94
2022/05/02 06:06:22;;;;;;;14.27;7.27;;;;;;;17.37;41.93;100484.16;5361943;32;35268;-95
2022/05/02 06:09:28;;;;;;;13.57;7.47;;;;;;;17.00;42.83;100478.56;5379745;32;35435;-92
2022/05/02 06:12:31;;;;;;;13.27;7.20;;;;;;;17.63;42.56;100491.25;5385020;32;35061;-89
2022/05/02 06:18:59;;;;;;;12.20;7.37;;;;;;;17.62;41.77;100499.31;5381155;32;34468;-91
2022/05/02 06:22:03;;;;;;;17.43;7.87;;;;;;;17.80;42.04;100498.13;5383885;32;34132;-94
2022/05/02 06:25:07;;;;;;;12.10;7.37;;;;;;;17.22;42.58;100500.12;5363438;32;34165;-90
2022/05/02 06:28:12;;;;;;;14.57;8.38;;;;;;;17.42;42.39;100500.66;5386855;32;36824;-95
2022/05/02 06:31:29;;;;;;;12.15;7.62;;;;;;;17.56;41.89;100505.91;5406047;32;35519;-95
2022/05/02 06:34:34;;;;;;;13.15;6.87;;;;;;;17.58;41.79;100503.97;5411087;32;32558;-91
2022/05/02 06:37:45;;;;;;;13.25;6.95;;;;;;;17.50;42.09;100511.59;5384477;32;34157;-92
2022/05/02 06:41:15;;;;;;;14.75;7.37;;;;;;;17.18;42.07;100521.69;5383952;32;44248;-92
2022/05/02 06:44:46;;;;;;;13.85;7.65;;;;;;;17.95;40.85;100513.03;5372240;32;34883;-93
2022/05/02 06:47:59;;;;;;;18.50;7.35;;;;;;;17.98;40.88;100517.31;5412922;32;34408;-91
2022/05/02 06:51:17;;;;;;;12.20;6.68;;;;;;;18.27;39.50;100517.97;5424506;32;35308;-95
2022/05/02 06:55:04;;;;;;;15.68;6.80;;;;;;;18.03;39.56;100517.81;5402628;32;36119;-95
2022/05/02 06:58:29;;;;;;;12.13;7.22;;;;;;;17.86;40.16;100513.66;5358675;32;34289;-94
2022/05/02 07:01:49;;;;;;;10.40;6.12;;;;;;;17.92;39.69;100523.03;5396281;32;34582;-91
2022/05/02 07:04:53;;;;;;;12.07;5.72;;;;;;;18.20;38.81;100520.19;5404096;32;34961;-90
2022/05/02 07:08:00;;;;;;;13.62;5.60;;;;;;;18.26;38.73;100517.12;5416593;32;35661;-96
2022/05/02 07:11:03;;;;;;;13.95;5.85;;;;;;;18.66;37.75;100525.84;5434039;32;34262;-93
2022/05/02 07:14:13;;;;;;;9.48;5.65;;;;;;;18.92;36.95;100524.00;5401614;32;37315;-94
2022/05/02 07:17:33;;;;;;;12.37;4.82;;;;;;;18.79;37.71;100525.84;5429183;27;45773;-74
2022/05/02 07:20:49;;;;;;;11.43;5.47;;;;;;;20.34;35.04;100511.69;5368332;32;35214;-83
2022/05/02 07:24:16;;;;;;;11.43;5.47;;;;;;;21.22;33.63;100509.13;5376521;32;35204;-78
2022/05/02 07:27:49;;;;;;;11.07;5.62;;;;;;;20.46;35.32;100511.59;5381511;32;165349;-78
2022/05/02 07:30:56;;;;;;;9.48;5.30;;;;;;;20.40;35.69;100508.53;5358999;32;34149;-72
2022/05/02 07:34:01;;;;;;;10.63;4.95;;;;;;;20.29;35.64;100506.72;5371622;32;35694;-69
2022/05/02 07:37:03;;;;;;;14.15;5.25;;;;;;;19.84;36.52;100508.44;5358039;32;34604;-73
2022/05/02 07:40:06;;;;;;;;;;;;;;;19.04;38.38;100508.09;5370369;32;34130;-76
2022/05/02 07:43:10;;;;;;;8.10;3.75;;;;;;;19.14;38.36;100514.47;5364438;32;44854;-73
2022/05/02 07:46:14;;;;;;;9.35;4.28;;;;;;;21.77;32.58;100500.09;5365937;32;34141;-71
2022/05/02 07:49:24;;;;;;;9.23;3.90;;;;;;;20.90;34.46;100496.53;5369703;32;35759;-76
2022/05/02 07:52:28;;;;;;;9.15;4.00;;;;;;;21.77;32.85;100499.25;5349251;32;34185;-75
2022/05/02 07:55:31;;;;;;;7.90;3.67;;;;;;;22.13;32.45;100496.12;5372256;32;34065;-79
2022/05/02 07:58:35;;;;;;;10.48;3.58;;;;;;;23.02;30.61;100485.69;5381309;32;34123;-81
2022/05/02 08:01:38;;;;;;;8.27;3.33;;;;;;;22.11;32.53;100500.78;5378814;32;36671;-84
2022/05/02 08:04:44;;;;;;;6.65;3.60;;;;;;;23.64;30.21;100494.44;5379077;32;43760;-76
2022/05/02 08:07:50;;;;;;;6.60;3.33;;;;;;;22.38;32.00;100504.75;5373466;32;34485;-76
2022/05/02 08:10:56;;;;;;;8.00;3.62;;;;;;;21.27;34.18;100505.09;5387783;32;35094;-82
2022/05/02 08:14:13;;;;;;;6.45;3.55;;;;;;;21.14;34.72;100498.22;5361448;32;35457;-74
2022/05/02 08:17:37;;;;;;;8.43;3.80;;;;;;;22.11;32.68;100494.59;5358838;32;44548;-87
2022/05/02 08:21:01;;;;;;;7.78;3.33;;;;;;;20.19;36.32;100497.72;5385165;32;43815;-76
2022/05/02 08:28:35;;;;;;;9.00;3.70;;;;;;;19.98;36.86;100497.56;5326741;32;34058;-79
2022/05/02 08:32:14;;;;;;;5.78;3.53;;;;;;;21.31;34.54;100484.34;5384682;32;34453;-74
2022/05/02 08:35:18;;;;;;;11.48;3.97;;;;;;;21.80;33.35;100483.78;5367139;32;34084;-74
2022/05/02 08:38:35;;;;;;;9.85;3.58;;;;;;;21.22;34.32;100485.06;5367279;32;34816;-74
2022/05/02 08:42:11;;;;;;;7.12;3.20;;;;;;;21.58;33.64;100481.22;5379653;32;36707;-75
2022/05/02 08:45:27;;;;;;;7.50;4.10;;;;;;;21.46;34.28;100475.06;5345700;32;34192;-75
2022/05/02 08:48:35;;;;;;;11.88;3.53;;;;;;;21.27;34.36;100474.84;5384239;32;34198;-76
2022/05/02 08:52:11;;;;;;;15.82;4.20;;;;;;;20.72;35.21;100479.31;5379291;32;44958;-75
2022/05/02 08:55:33;;;;;;;11.73;3.60;;;;;;;20.70;35.36;100478.59;5358481;32;44516;-89
2022/05/02 08:59:00;;;;;;;6.47;3.30;;;;;;;20.70;35.23;100475.94;5368305;32;34189;-74
2022/05/02 09:02:14;;;;;;;9.18;4.15;;;;;;;20.91;35.04;100481.37;5362175;32;36219;-71
2022/05/02 09:05:58;;;;;;;9.50;3.83;;;;;;;21.37;34.29;100476.66;5374261;32;44540;-91
2022/05/02 09:09:18;;;;;;;6.32;3.20;;;;;;;21.23;34.62;100473.41;5386048;32;35190;-73
2022/05/02 09:12:47;;;;;;;5.70;2.78;;;;;;;21.63;33.64;100477.16;5371435;32;32881;-71
2022/05/02 09:16:14;;;;;;;6.37;3.00;;;;;;;20.36;35.75;100470.56;5336780;32;36355;-74
2022/05/02 09:20:11;;;;;;;9.18;2.95;;;;;;;21.19;33.79;100466.59;5401073;32;44659;-80
2022/05/02 09:23:22;;;;;;;9.95;3.40;;;;;;;21.42;33.86;100465.59;5354500;32;34318;-71
2022/05/02 09:26:55;;;;;;;4.93;2.90;;;;;;;20.96;34.21;100466.66;5355494;32;33387;-70
2022/05/02 09:30:16;;;;;;;;;;;;;;;21.90;32.59;100467.81;5382747;32;36194;-71
2022/05/02 09:33:46;;;;;;;5.18;3.05;;;;;;;20.49;34.62;100458.00;5367669;32;44391;-80
2022/05/02 09:36:49;;;;;;;10.18;3.20;;;;;;;20.81;34.67;100449.22;5355492;32;44359;-75
2022/05/02 09:40:08;;;;;;;9.77;3.30;;;;;;;21.29;33.89;100454.22;5379475;32;34089;-73
2022/05/02 09:43:18;;;;;;;7.12;3.10;;;;;;;20.46;35.45;100457.37;5365245;32;46076;-73
2022/05/02 09:50:08;;;;;;;8.15;3.40;;;;;;;21.81;33.15;100458.72;5382482;32;34259;-74
2022/05/02 09:53:41;;;;;;;7.07;3.60;;;;;;;21.73;33.61;100452.31;5365639;32;44030;-73
2022/05/02 09:56:43;;;;;;;;;;;;;;;20.80;35.44;100453.72;5368890;32;44572;-68
2022/05/02 10:03:23;;;;;;;7.20;3.20;;;;;;;22.31;32.74;100437.50;5386833;32;34971;-95
2022/05/02 10:06:40;;;;;;;8.30;3.37;;;;;;;22.49;32.43;100431.50;5377038;32;34918;-93
2022/05/02 10:10:03;;;;;;;10.32;4.00;;;;;;;22.46;31.95;100432.59;5376324;32;44394;-92
2022/05/02 10:13:41;;;;;;;9.13;3.50;;;;;;;22.58;31.85;100418.12;5369771;32;34791;-94
2022/05/02 10:16:51;;;;;;;5.95;3.08;;;;;;;21.87;33.41;100422.56;5274431;32;34750;-93
2022/05/02 10:20:04;;;;;;;6.00;3.20;;;;;;;21.90;32.68;100425.00;5370227;32;36540;-91
2022/05/02 10:23:46;;;;;;;5.35;3.10;;;;;;;25.12;27.49;100403.16;5379250;32;35256;-91
2022/05/02 10:27:30;;;;;;;6.95;2.95;;;;;;;26.44;25.34;100401.25;5358875;32;34193;-93
2022/05/02 10:30:42;;;;;;;6.10;3.87;;;;;;;28.31;22.74;100388.91;5358042;32;37100;-92
2022/05/02 10:33:49;;;;;;;10.75;2.70;;;;;;;25.91;25.10;100399.59;5378957;32;45070;-93
2022/05/02 10:36:53;;;;;;;6.30;2.42;;;;;;;25.48;25.97;100396.91;5340166;32;35331;-92
2022/05/02 10:40:04;;;;;;;3.83;2.42;;;;;;;26.66;24.52;100388.19;5351669;32;34730;-90
2022/05/02 10:43:09;;;;;;;8.13;2.60;;;;;;;25.61;25.13;100387.41;5363127;32;35487;-91
2022/05/02 10:46:12;;;;;;;5.90;2.65;;;;;;;29.30;20.87;100368.38;5366899;32;44904;-91
2022/05/02 10:49:50;;;;;;;4.45;2.62;;;;;;;30.18;20.06;100365.87;5352304;32;34431;-92
2022/05/02 10:53:14;;;;;;;3.97;2.58;;;;;;;27.92;21.90;100373.47;5368293;32;34065;-94
2022/05/02 10:56:34;;;;;;;7.45;2.25;;;;;;;27.29;22.70;100371.47;5387859;32;44633;-96
2022/05/02 10:59:41;;;;;;;5.07;2.30;;;;;;;28.61;21.30;100368.34;5371184;32;32711;-93
2022/05/02 11:03:03;;;;;;;6.03;2.90;;;;;;;28.38;20.76;100353.91;5366464;32;43432;-92
2022/05/02 11:06:32;;;;;;;7.28;2.60;;;;;;;27.40;22.44;100362.19;5396555;32;33927;-96
2022/05/02 11:10:11;;;;;;;5.53;2.45;;;;;;;28.74;21.04;100356.94;5386901;32;35836;-93
2022/05/02 11:13:34;;;;;;;5.30;2.10;;;;;;;31.15;18.44;100351.97;5339941;28;45829;-79
2022/05/02 11:16:41;;;;;;;4.72;2.55;;;;;;;33.12;15.71;100353.34;5332460;32;34085;-77
2022/05/02 11:23:41;;;;;;;4.47;2.60;;;;;;;30.18;18.38;100354.19;5333277;32;36234;-84
2022/05/02 11:26:50;;;;;;;7.22;2.47;;;;;;;32.84;15.91;100342.56;5349201;32;48312;-82
2022/05/02 11:30:13;;;;;;;5.45;2.55;;;;;;;33.05;15.54;100332.59;5340406;32;35628;-76
2022/05/02 11:33:39;;;;;;;6.53;2.45;;;;;;;35.14;14.15;100329.69;5336522;32;45406;-76
2022/05/02 11:36:49;;;;;;;6.45;2.67;;;;;;;32.76;15.90;100334.59;5350428;32;44313;-76
2022/05/02 11:40:04;;;;;;;4.65;2.37;;;;;;;33.72;14.07;100334.28;5326315;32;35477;-72
2022/05/02 11:43:08;;;;;;;5.82;2.45;;;;;;;33.92;14.30;100331.53;5349439;32;35458;-73
2022/05/02 11:46:28;;;;;;;7.40;2.67;;;;;;;31.06;16.23;100327.88;5348678;32;44398;-82
2022/05/02 11:50:05;;;;;;;5.57;2.75;;;;;;;28.41;18.63;100327.38;5340972;32;32176;-73
2022/05/02 11:53:09;;;;;;;6.62;2.53;;;;;;;27.06;19.48;100328.16;5307444;32;34446;-79
2022/05/02 11:56:13;;;;;;;4.47;2.50;;;;;;;29.67;17.23;100327.78;5342878;32;44088;-80
2022/05/02 11:59:18;;;;;;;6.60;2.30;;;;;;;30.01;17.23;100326.41;5340260;32;34316;-75
2022/05/02 12:02:37;;;;;;;3.17;2.22;;;;;;;29.36;17.86;100322.47;5344561;32;34200;-79
2022/05/02 12:05:41;;;;;;;5.62;2.70;;;;;;;26.50;21.14;100324.31;5350168;32;35466;-77
2022/05/02 12:08:48;;;;;;;7.05;2.70;;;;;;;27.92;19.70;100319.44;5362417;32;43409;-77
2022/05/02 12:11:53;;;;;;;6.10;2.70;;;;;;;28.32;19.10;100314.91;5324241;32;34223;-77
2022/05/02 12:15:12;;;;;;;5.05;2.60;;;;;;;29.81;16.58;100304.44;5320623;32;35317;-77
2022/05/02 12:18:15;;;;;;;4.85;2.85;;;;;;;28.87;17.16;100305.81;5354701;32;44746;-79
2022/05/02 12:21:31;;;;;;;4.50;2.60;;;;;;;29.05;17.28;100298.25;5349966;32;34158;-75
2022/05/02 12:24:36;;;;;;;9.40;2.75;;;;;;;30.17;16.15;100285.59;5359375;32;34211;-76
2022/05/02 12:27:39;;;;;;;4.22;2.78;;;;;;;30.98;15.26;100285.44;5338032;32;35285;-82
2022/05/02 12:30:42;;;;;;;3.83;2.28;;;;;;;32.05;14.20;100280.56;5353588;32;44074;-80
2022/05/02 12:33:48;;;;;;;5.22;2.60;;;;;;;30.94;15.00;100268.69;5351870;32;35592;-79
2022/05/02 12:36:53;;;;;;;7.57;3.87;;;;;;;29.54;16.63;100275.31;5343846;32;34922;-78
2022/05/02 12:40:09;;;;;;;5.35;2.47;;;;;;;29.36;17.17;100272.91;5355690;32;32744;-76
2022/05/02 12:43:27;;;;;;;8.68;5.87;;;;;;;27.87;18.49;100281.31;5345315;32;44734;-76
2022/05/02 12:46:38;;;;;;;4.40;2.10;;;;;;;27.95;18.46;100273.19;5344406;32;34096;-86
2022/05/02 12:49:54;;;;;;;6.37;2.30;;;;;;;26.53;20.12;100269.22;5338308;32;47190;-79
2022/05/02 12:53:00;;;;;;;3.65;2.08;;;;;;;27.58;18.81;100262.16;5315543;32;34144;-81
2022/05/02 12:56:04;;;;;;;4.32;2.30;;;;;;;27.58;18.89;100252.19;5347318;32;34408;-80
2022/05/02 13:02:32;;;;;;;4.40;2.17;;;;;;;25.96;20.49;100251.03;5339056;32;35904;-79
2022/05/02 13:05:38;;;;;;;5.90;2.45;;;;;;;25.23;21.57;100262.19;5346776;32;36784;-79
2022/05/02 13:08:44;;;;;;;5.65;2.50;;;;;;;26.10;20.46;100255.81;5346093;32;44650;-79
2022/05/02 13:11:47;;;;;;;5.18;2.58;;;;;;;26.63;20.05;100249.19;5358766;32;34680;-78
2022/05/02 13:14:59;;;;;;;3.97;2.40;;;;;;;27.08;19.42;100238.97;5324270;32;33831;-73
2022/05/02 13:18:04;;;;;;;10.00;2.75;;;;;;;26.59;20.20;100234.38;5351222;32;36291;-76
2022/05/02 13:21:27;;;;;;;4.40;2.50;;;;;;;24.96;22.12;100230.87;5341776;32;35752;-76
2022/05/02 13:24:29;;;;;;;4.20;2.30;;;;;;;24.90;22.45;100231.50;5352541;32;32391;-74
2022/05/02 13:27:37;;;;;;;4.95;2.17;;;;;;;24.65;22.33;100224.25;5353155;32;35691;-80
2022/05/02 13:30:39;;;;;;;5.35;2.70;;;;;;;26.01;20.81;100220.91;5349270;32;45130;-76
2022/05/02 13:33:43;;;;;;;;;;;;;;;26.66;20.01;100212.97;5353776;32;34103;-77
2022/05/02 13:36:50;;;;;;;5.15;2.33;;;;;;;25.64;21.28;100219.41;5344903;32;34177;-77
2022/05/02 13:40:02;;;;;;;3.85;2.20;;;;;;;25.60;21.58;100209.97;5360131;32;35314;-79
2022/05/02 13:43:20;;;;;;;7.32;2.55;;;;;;;26.18;20.74;100210.03;5348725;32;34251;-78
2022/05/02 13:46:33;;;;;;;3.05;2.20;;;;;;;25.41;21.27;100210.19;5331322;32;34196;-81
2022/05/02 13:50:12;;;;;;;5.97;2.20;;;;;;;25.33;21.28;100217.22;5350553;32;34568;-80
2022/05/02 13:53:33;;;;;;;4.82;2.58;;;;;;;25.72;21.15;100210.53;5347906;32;44285;-76
2022/05/02 13:57:08;;;;;;;4.65;2.20;;;;;;;25.79;21.29;100207.06;5349214;32;44348;-72
2022/05/02 14:03:47;;;;;;;5.78;2.15;;;;;;;24.09;23.47;100202.03;5319749;32;35545;-72
2022/05/02 14:09:59;;;;;;;4.95;2.65;;;;;;;24.98;22.35;100209.22;5364244;32;33235;-72
2022/05/02 14:13:16;;;;;;;3.92;2.17;;;;;;;25.22;22.14;100206.72;5342438;32;34365;-78
2022/05/02 14:16:18;;;;;;;3.97;2.05;;;;;;;24.70;22.71;100200.44;5336815;32;44381;-74
2022/05/02 14:19:23;;;;;;;3.67;2.00;;;;;;;24.46;23.14;100209.13;5345795;32;34174;-73
2022/05/02 14:22:36;;;;;;;4.62;2.15;;;;;;;25.59;21.77;100203.75;5361736;32;33842;-76
2022/05/02 14:25:44;;;;;;;5.25;2.30;;;;;;;24.77;22.80;100201.50;5335853;32;33838;-74
2022/05/02 14:28:52;;;;;;;3.12;1.90;;;;;;;25.47;21.87;100191.56;5344391;32;35217;-74
2022/05/02 14:32:04;;;;;;;5.57;2.30;;;;;;;24.66;22.83;100197.19;5355292;32;34431;-77
2022/05/02 14:35:08;;;;;;;3.60;2.42;;;;;;;24.78;22.79;100189.75;5350933;32;34049;-74
2022/05/02 14:38:15;;;;;;;4.50;2.75;;;;;;;24.65;22.09;100187.47;5365834;32;44594;-73
2022/05/02 14:41:18;;;;;;;5.57;2.60;;;;;;;24.12;23.10;100182.91;5351626;32;33943;-80
2022/05/02 14:44:23;;;;;;;6.57;2.55;;;;;;;24.14;23.26;100183.59;5339387;32;35544;-78
2022/05/02 14:47:26;;;;;;;3.08;2.35;;;;;;;24.15;23.25;100193.37;5352831;32;35085;-72
2022/05/02 14:50:28;;;;;;;3.22;2.17;;;;;;;23.91;23.32;100185.03;5346147;32;34220;-75
2022/05/02 14:53:40;;;;;;;;;;;;;;;24.73;22.24;100184.88;5338569;32;34154;-80
2022/05/02 14:56:44;;;;;;;6.70;2.70;;;;;;;23.50;24.56;100187.16;5337626;32;45127;-79
2022/05/02 14:59:47;;;;;;;4.75;2.30;;;;;;;23.55;24.42;100184.91;5347017;32;33989;-73
2022/05/02 15:02:51;;;;;;;4.85;2.10;;;;;;;24.10;23.60;100182.22;5346174;32;34110;-79
2022/05/02 15:05:56;;;;;;;8.98;2.78;;;;;;;24.17;22.50;100183.31;5337512;32;34940;-73
2022/05/02 15:09:10;;;;;;;6.87;2.87;;;;;;;23.04;25.89;100190.72;5352269;32;35708;-76
2022/05/02 15:12:18;;;;;;;9.52;3.20;;;;;;;24.22;25.43;100193.59;5338258;32;45115;-71
2022/05/02 15:15:23;;;;;;;9.82;2.67;;;;;;;23.38;27.09;100204.44;5334047;32;33950;-78